Time;durP1;ratioP1;P1;durP2;ratioP2;P2;SDS_P1;SDS_P2;PMS_P1;PMS_P2;Temp;Humidity;BMP_temperature;BMP_pressure;BME280_temperature;BME280_humidity;BME280_pressure;Samples;Min_cycle;Max_cycle;Signal;HPM_P1;HPM_P2
2023/04/04 00:01:15;;;;;;;7.55;4.30;;;2.20;99.90;;;;;;4997906;28;20091;-50
2023/04/04 00:03:41;;;;;;;5.60;4.00;;;2.20;99.90;;;;;;4999877;28;20050;-49
2023/04/04 00:06:07;;;;;;;6.47;4.22;;;2.20;99.90;;;;;;4999647;28;20539;-52
2023/04/04 00:08:32;;;;;;;5.68;4.22;;;2.20;99.90;;;;;;4983549;28;20042;-54
2023/04/04 00:11:01;;;;;;;8.10;4.03;;;2.20;99.90;;;;;;4981377;28;20065;-52
2023/04/04 00:13:27;;;;;;;5.18;3.90;;;2.10;99.90;;;;;;4999286;28;20420;-48
2023/04/04 00:15:54;;;;;;;5.97;4.25;;;2.10;99.90;;;;;;4982546;28;20494;-51
2023/04/04 00:18:20;;;;;;;7.13;4.35;;;2.10;99.90;;;;;;4995564;28;20072;-50
2023/04/04 00:20:46;;;;;;;6.25;4.28;;;2.10;99.90;;;;;;5000886;28;20042;-49
2023/04/04 00:23:11;;;;;;;6.07;4.22;;;2.00;99.90;;;;;;5000225;28;20070;-49
2023/04/04 00:25:37;;;;;;;7.20;4.35;;;2.00;99.90;;;;;;4997451;28;20046;-52
2023/04/04 00:28:03;;;;;;;6.55;4.38;;;2.00;99.90;;;;;;4998632;28;20042;-50
2023/04/04 00:30:30;;;;;;;7.40;4.38;;;2.00;99.90;;;;;;4997821;28;20062;-49
2023/04/04 00:32:56;;;;;;;8.35;4.68;;;1.90;99.90;;;;;;5000451;28;20041;-49
2023/04/04 00:35:22;;;;;;;9.85;4.65;;;1.90;99.90;;;;;;4996896;28;20038;-49
2023/04/04 00:37:48;;;;;;;6.15;4.30;;;1.90;99.90;;;;;;5004329;28;20114;-53
2023/04/04 00:40:14;;;;;;;8.50;4.25;;;1.80;99.90;;;;;;4979180;28;20038;-51
2023/04/04 00:42:40;;;;;;;7.88;5.00;;;1.90;99.90;;;;;;5009056;28;20094;-52
2023/04/04 00:45:06;;;;;;;5.47;4.55;;;1.80;99.90;;;;;;5000949;28;20115;-51
2023/04/04 00:47:33;;;;;;;6.82;4.40;;;1.80;99.90;;;;;;5001678;28;20053;-50
2023/04/04 00:49:58;;;;;;;7.20;4.20;;;1.80;99.90;;;;;;5001077;28;20092;-50
2023/04/04 00:52:24;;;;;;;5.97;4.47;;;1.80;99.90;;;;;;4999652;28;20521;-50
2023/04/04 00:54:50;;;;;;;7.85;4.95;;;1.70;99.90;;;;;;5003866;28;20048;-52
2023/04/04 00:57:16;;;;;;;8.30;4.32;;;1.70;99.90;;;;;;5010077;28;20046;-50
2023/04/04 00:59:42;;;;;;;5.57;4.35;;;1.70;99.90;;;;;;5010322;28;20429;-50
2023/04/04 01:02:08;;;;;;;6.30;4.30;;;1.60;99.90;;;;;;5010735;28;20124;-52
2023/04/04 01:04:35;;;;;;;6.88;4.43;;;1.60;99.90;;;;;;5009624;28;20042;-52
2023/04/04 01:07:03;;;;;;;11.88;4.60;;;1.60;99.90;;;;;;5002293;28;20057;-51
2023/04/04 01:09:28;;;;;;;7.05;4.38;;;1.60;99.90;;;;;;4991589;28;20129;-51
2023/04/04 01:11:55;;;;;;;5.80;4.32;;;1.50;99.90;;;;;;4992614;28;20121;-53
2023/04/04 01:14:21;;;;;;;7.45;4.68;;;1.50;99.90;;;;;;5010183;28;20081;-50
2023/04/04 01:16:49;;;;;;;8.52;4.40;;;1.50;99.90;;;;;;5010116;28;20532;-49
2023/04/04 01:19:27;;;;;;;8.85;4.78;;;1.40;99.90;;;;;;5009910;28;20050;-48
2023/04/04 01:21:53;;;;;;;;;;;1.40;99.90;;;;;;5003458;28;20136;-48
2023/04/04 01:24:22;;;;;;;8.25;4.40;;;1.40;99.90;;;;;;4998439;28;19928;-49
2023/04/04 01:26:49;;;;;;;7.00;4.25;;;1.40;99.90;;;;;;4982118;28;20046;-50
2023/04/04 01:29:15;;;;;;;5.40;4.13;;;1.40;99.90;;;;;;4998473;28;20042;-52
2023/04/04 01:31:46;;;;;;;7.18;4.30;;;1.30;99.90;;;;;;5000136;28;20399;-49
2023/04/04 01:34:30;;;;;;;6.50;4.50;;;1.30;99.90;;;;;;5000530;28;20124;-49
2023/04/04 01:37:17;;;;;;;5.65;3.80;;;1.30;99.90;;;;;;4997705;28;20038;-50
2023/04/04 01:39:48;;;;;;;7.40;4.88;;;1.30;99.90;;;;;;4997883;28;20074;-50
2023/04/04 01:42:15;;;;;;;7.57;4.68;;;1.30;99.90;;;;;;4997585;28;20088;-50
2023/04/04 01:44:42;;;;;;;6.53;4.35;;;1.20;99.90;;;;;;5001413;28;20046;-51
2023/04/04 01:47:08;;;;;;;7.38;4.40;;;1.30;99.90;;;;;;5002261;28;20121;-52
2023/04/04 01:49:34;;;;;;;6.88;4.13;;;1.20;99.90;;;;;;5000183;28;20133;-52
2023/04/04 01:52:00;;;;;;;7.63;4.88;;;1.20;99.90;;;;;;5002299;28;20046;-51
2023/04/04 01:54:27;;;;;;;6.20;4.07;;;1.20;99.90;;;;;;5002048;28;20050;-49
2023/04/04 01:56:53;;;;;;;7.32;4.70;;;1.20;99.90;;;;;;4979132;28;20583;-50
2023/04/04 01:59:18;;;;;;;6.65;4.13;;;1.10;99.90;;;;;;4994718;28;20050;-50
2023/04/04 02:01:44;;;;;;;7.80;4.40;;;1.10;99.90;;;;;;4998605;28;20081;-49
2023/04/04 02:04:11;;;;;;;7.03;4.25;;;1.20;99.90;;;;;;5000431;28;20076;-50
2023/04/04 02:10:03;;;;;;;8.27;3.95;;;1.10;99.90;;;;;;5002696;28;20042;-50
2023/04/04 02:12:28;;;;;;;8.68;4.40;;;1.10;99.90;;;;;;4999583;28;20498;-52
2023/04/04 02:14:54;;;;;;;6.85;4.25;;;1.10;99.90;;;;;;5004307;28;20080;-51
2023/04/04 02:17:19;;;;;;;9.35;4.70;;;1.00;99.90;;;;;;5002171;28;20049;-50
2023/04/04 02:19:45;;;;;;;8.68;4.10;;;0.90;99.90;;;;;;5003732;28;20395;-49
2023/04/04 02:22:11;;;;;;;7.65;4.50;;;1.00;99.90;;;;;;5002794;28;20045;-50
2023/04/04 02:24:36;;;;;;;6.15;4.07;;;0.90;99.90;;;;;;5003893;28;20039;-50
2023/04/04 02:27:03;;;;;;;5.70;4.35;;;1.00;99.90;;;;;;5006492;28;20042;-48
2023/04/04 02:29:29;;;;;;;6.40;4.68;;;0.90;99.90;;;;;;5006112;28;20127;-56
2023/04/04 02:31:54;;;;;;;7.35;4.40;;;0.90;99.90;;;;;;5019477;28;20064;-51
2023/04/04 02:34:20;;;;;;;8.50;4.10;;;0.80;99.90;;;;;;5007164;28;20073;-51
2023/04/04 02:36:46;;;;;;;5.93;3.75;;;0.80;99.90;;;;;;4989985;28;20041;-51
2023/04/04 02:39:11;;;;;;;5.40;3.80;;;0.80;99.90;;;;;;5009283;28;20084;-50
2023/04/04 02:41:37;;;;;;;9.15;4.53;;;0.70;99.90;;;;;;5004393;28;20046;-51
2023/04/04 02:44:03;;;;;;;7.57;4.45;;;0.70;99.90;;;;;;5006048;28;20517;-53
2023/04/04 02:46:28;;;;;;;6.20;3.92;;;0.70;99.90;;;;;;5003102;28;20049;-51
2023/04/04 02:48:54;;;;;;;5.68;3.72;;;0.70;99.90;;;;;;5004547;28;20065;-53
2023/04/04 02:51:19;;;;;;;8.10;4.22;;;0.70;99.90;;;;;;5005593;28;20046;-53
2023/04/04 02:53:45;;;;;;;7.25;4.10;;;0.60;99.90;;;;;;5007524;28;20049;-53
2023/04/04 02:56:11;;;;;;;5.90;4.32;;;0.60;99.90;;;;;;5027009;28;20164;-52
2023/04/04 02:58:37;;;;;;;9.18;4.25;;;0.60;99.90;;;;;;5016713;28;20515;-53
2023/04/04 03:01:03;;;;;;;6.50;3.95;;;0.60;99.90;;;;;;4989382;28;20038;-51
2023/04/04 03:03:28;;;;;;;6.18;4.45;;;0.50;99.90;;;;;;5007228;28;20071;-49
2023/04/04 03:05:54;;;;;;;4.80;3.95;;;0.50;99.90;;;;;;4969650;28;20076;-53
2023/04/04 03:08:20;;;;;;;7.28;4.35;;;0.50;99.90;;;;;;4988228;28;20042;-52
2023/04/04 03:10:46;;;;;;;7.25;4.18;;;0.40;99.90;;;;;;5015874;28;20116;-53
2023/04/04 03:13:11;;;;;;;7.80;4.05;;;0.40;99.90;;;;;;5005576;28;20469;-50
2023/04/04 03:15:39;;;;;;;5.80;3.97;;;0.40;99.90;;;;;;5007498;28;20041;-49
2023/04/04 03:18:05;;;;;;;6.32;4.10;;;0.40;99.90;;;;;;5005288;28;20046;-53
2023/04/04 03:20:31;;;;;;;7.15;4.00;;;0.30;99.90;;;;;;5005385;28;20129;-51
2023/04/04 03:22:57;;;;;;;9.43;3.85;;;0.30;99.90;;;;;;4989676;28;20098;-51
2023/04/04 03:25:23;;;;;;;5.80;4.13;;;0.30;99.90;;;;;;5003955;28;20042;-50
2023/04/04 03:27:49;;;;;;;6.20;3.85;;;0.30;99.90;;;;;;4994935;28;20399;-50
2023/04/04 03:30:14;;;;;;;9.25;4.43;;;0.30;99.90;;;;;;5000958;28;20038;-54
2023/04/04 03:32:40;;;;;;;7.13;3.70;;;0.20;99.90;;;;;;5001579;28;20042;-49
2023/04/04 03:35:07;;;;;;;7.10;3.83;;;0.20;99.90;;;;;;5006755;28;20122;-49
2023/04/04 03:37:32;;;;;;;6.88;3.70;;;0.20;99.90;;;;;;5001414;28;20048;-49
2023/04/04 03:39:59;;;;;;;5.47;3.92;;;0.10;99.90;;;;;;4986409;28;20041;-50
2023/04/04 03:42:28;;;;;;;5.72;3.60;;;0.10;99.90;;;;;;5003639;28;20142;-51
2023/04/04 03:44:53;;;;;;;8.70;4.20;;;0.10;99.90;;;;;;5005482;28;20030;-51
2023/04/04 03:47:19;;;;;;;6.05;3.78;;;0.10;99.90;;;;;;5014660;28;20404;-50
2023/04/04 03:49:46;;;;;;;9.70;3.95;;;0.10;99.90;;;;;;5004498;28;20500;-50
2023/04/04 03:52:11;;;;;;;5.53;4.00;;;0.00;99.90;;;;;;5000659;28;20079;-53
2023/04/04 03:54:38;;;;;;;7.68;4.20;;;0.00;99.90;;;;;;5004291;28;20525;-51
2023/04/04 03:57:04;;;;;;;5.68;3.70;;;0.00;99.90;;;;;;4986265;28;20486;-50
2023/04/04 03:59:30;;;;;;;6.43;4.00;;;0.00;99.90;;;;;;5001790;28;20043;-51
2023/04/04 04:01:56;;;;;;;6.00;4.30;;;0.00;99.90;;;;;;4985553;28;20506;-50
2023/04/04 04:04:21;;;;;;;7.28;3.75;;;0.00;99.90;;;;;;4986891;28;20045;-49
2023/04/04 04:06:47;;;;;;;6.65;3.75;;;0.00;99.90;;;;;;5005375;28;20038;-52
2023/04/04 04:09:13;;;;;;;6.03;4.18;;;-0.10;99.90;;;;;;5005850;28;20042;-52
2023/04/04 04:11:39;;;;;;;6.95;3.80;;;-0.10;99.90;;;;;;5004546;28;20075;-50
2023/04/04 04:14:05;;;;;;;5.60;4.20;;;-0.20;99.90;;;;;;5005290;28;20038;-50
2023/04/04 04:16:31;;;;;;;6.47;3.88;;;-0.20;99.90;;;;;;5005838;28;20094;-48
2023/04/04 04:18:57;;;;;;;7.38;4.03;;;-0.20;99.90;;;;;;4998966;28;20057;-51
2023/04/04 04:21:23;;;;;;;8.10;4.03;;;-0.30;99.90;;;;;;5003289;28;20041;-49
2023/04/04 04:23:48;;;;;;;5.28;3.65;;;-0.30;99.90;;;;;;5003883;28;20061;-52
2023/04/04 04:26:14;;;;;;;7.43;3.90;;;-0.30;99.90;;;;;;4981889;28;20038;-49
2023/04/04 04:28:40;;;;;;;4.88;3.67;;;-0.40;99.90;;;;;;4998182;28;20064;-51
2023/04/04 04:31:07;;;;;;;8.27;4.20;;;-0.40;99.90;;;;;;4995218;28;20042;-53
2023/04/04 04:33:33;;;;;;;6.10;4.03;;;-0.40;99.90;;;;;;4996272;28;20487;-52
2023/04/04 04:36:05;;;;;;;6.72;4.35;;;-0.40;99.90;;;;;;5000042;28;20057;-48
2023/04/04 04:38:32;;;;;;;7.70;4.68;;;-0.50;99.90;;;;;;4998868;28;20042;-48
2023/04/04 04:40:58;;;;;;;10.65;4.10;;;-0.50;99.90;;;;;;4998432;28;20057;-48
2023/04/04 04:43:23;;;;;;;7.47;4.05;;;-0.50;99.90;;;;;;5000381;28;20050;-48
2023/04/04 04:45:49;;;;;;;8.98;4.38;;;-0.50;99.90;;;;;;4996878;28;20041;-49
2023/04/04 04:48:16;;;;;;;6.30;4.50;;;-0.50;99.90;;;;;;4980044;28;20572;-50
2023/04/04 04:50:45;;;;;;;5.90;3.88;;;-0.50;99.90;;;;;;5008801;28;20610;-49
2023/04/04 04:53:14;;;;;;;6.53;4.32;;;-0.50;99.90;;;;;;5002571;28;20042;-50
2023/04/04 04:55:43;;;;;;;9.23;4.40;;;-0.50;99.90;;;;;;4993097;28;20046;-52
2023/04/04 04:58:09;;;;;;;8.25;4.70;;;-0.50;99.90;;;;;;4994753;28;20058;-49
2023/04/04 05:00:36;;;;;;;6.22;4.53;;;-0.40;99.90;;;;;;5000069;28;20053;-50
2023/04/04 05:03:05;;;;;;;8.90;4.55;;;-0.40;99.90;;;;;;5005538;28;20053;-52
2023/04/04 05:05:33;;;;;;;7.95;4.70;;;-0.40;99.90;;;;;;5001869;28;20053;-49
2023/04/04 05:08:00;;;;;;;7.23;4.80;;;-0.30;99.90;;;;;;5010268;28;20352;-49
2023/04/04 05:10:26;;;;;;;9.68;5.45;;;-0.30;99.90;;;;;;5009772;28;20444;-50
2023/04/04 05:12:51;;;;;;;9.30;5.00;;;-0.20;99.90;;;;;;5008844;28;20075;-51
2023/04/04 05:15:17;;;;;;;5.57;4.63;;;-0.20;99.90;;;;;;5007669;28;20069;-51
2023/04/04 05:17:43;;;;;;;7.55;4.20;;;-0.20;99.90;;;;;;5008008;28;20091;-49
2023/04/04 05:20:09;;;;;;;11.50;4.68;;;-0.10;99.90;;;;;;5005449;28;20046;-50
2023/04/04 05:22:35;;;;;;;6.63;4.10;;;-0.10;99.90;;;;;;4997179;28;20084;-49
2023/04/04 05:25:00;;;;;;;6.35;3.97;;;-0.10;99.90;;;;;;5002375;28;20074;-51
2023/04/04 05:27:26;;;;;;;7.18;4.25;;;0.00;99.90;;;;;;5003591;28;20038;-49
2023/04/04 05:29:52;;;;;;;7.45;4.05;;;0.10;99.90;;;;;;5002048;28;20038;-48
2023/04/04 05:32:17;;;;;;;5.97;4.07;;;0.10;99.90;;;;;;5002714;28;20050;-53
2023/04/04 05:34:43;;;;;;;7.38;4.40;;;0.10;99.90;;;;;;5002007;28;20113;-51
2023/04/04 05:37:09;;;;;;;6.70;4.30;;;0.10;99.90;;;;;;4995934;28;22006;-49
2023/04/04 05:39:35;;;;;;;6.35;4.15;;;0.20;99.90;;;;;;4994019;28;20403;-49
2023/04/04 05:42:01;;;;;;;5.97;3.90;;;0.30;99.90;;;;;;4986351;28;20045;-51
2023/04/04 05:44:26;;;;;;;8.98;4.15;;;0.30;99.90;;;;;;5001326;28;20366;-48
2023/04/04 05:46:52;;;;;;;7.65;4.03;;;0.40;99.90;;;;;;5002933;28;20050;-53
2023/04/04 05:49:17;;;;;;;7.45;4.85;;;0.50;99.90;;;;;;5003182;28;20466;-49
2023/04/04 05:51:43;;;;;;;7.32;4.03;;;0.50;99.90;;;;;;5007399;28;20046;-52
2023/04/04 05:54:09;;;;;;;7.82;4.45;;;0.60;99.90;;;;;;5004593;28;20038;-50
2023/04/04 05:56:34;;;;;;;4.53;3.95;;;0.70;99.90;;;;;;5007106;28;20038;-48
2023/04/04 05:59:01;;;;;;;8.00;4.35;;;0.80;99.90;;;;;;5004551;28;20053;-51
2023/04/04 06:01:28;;;;;;;5.03;3.40;;;;;;;;;;4999528;28;20115;-50
2023/04/04 06:03:55;;;;;;;4.65;3.13;;;1.10;99.90;;;;;;4998020;28;20498;-52
2023/04/04 06:06:20;;;;;;;6.03;3.42;;;1.40;99.90;;;;;;5001131;28;20375;-51
2023/04/04 06:08:46;;;;;;;7.65;3.53;;;2.00;99.90;;;;;;5007450;28;20045;-49
2023/04/04 06:11:12;;;;;;;5.15;3.38;;;2.30;99.90;;;;;;5005340;28;20125;-49
2023/04/04 06:13:37;;;;;;;5.55;3.70;;;3.10;99.90;;;;;;5007130;28;20044;-50
2023/04/04 06:16:04;;;;;;;8.27;3.28;;;3.30;99.90;;;;;;5005403;28;20041;-53
2023/04/04 06:18:29;;;;;;;3.70;2.55;;;3.70;99.90;;;;;;5009755;28;20132;-49
2023/04/04 06:20:55;;;;;;;5.43;3.40;;;3.80;99.90;;;;;;4999554;28;20071;-54
2023/04/04 06:23:21;;;;;;;5.32;3.03;;;4.10;99.90;;;;;;5006811;28;20153;-54
2023/04/04 06:25:47;;;;;;;5.55;3.13;;;4.00;99.90;;;;;;5006837;28;20045;-54
2023/04/04 06:28:14;;;;;;;5.72;3.10;;;4.30;99.90;;;;;;4701631;22;20061;-51
2023/04/04 06:30:40;;;;;;;7.70;3.30;;;4.50;99.90;;;;;;5018969;28;20385;-52
2023/04/04 06:33:06;;;;;;;5.50;2.80;;;4.40;99.90;;;;;;5022087;28;20037;-53
2023/04/04 06:35:31;;;;;;;6.03;3.15;;;4.50;99.90;;;;;;5023225;28;20073;-52
2023/04/04 06:37:58;;;;;;;6.38;3.00;;;4.50;99.90;;;;;;5024751;28;20047;-49
2023/04/04 06:40:23;;;;;;;5.78;3.38;;;4.70;99.90;;;;;;5033008;28;20066;-54
2023/04/04 06:42:51;;;;;;;5.85;3.03;;;;;;;;;;5032484;28;20477;-50
2023/04/04 06:45:17;;;;;;;6.57;3.50;;;5.40;99.90;;;;;;5019106;28;20073;-54
2023/04/04 06:47:43;;;;;;;4.70;2.78;;;6.00;99.90;;;;;;5026540;28;20042;-53
2023/04/04 06:50:09;;;;;;;4.88;3.00;;;6.20;99.90;;;;;;5032457;28;20036;-52
2023/04/04 06:52:35;;;;;;;5.28;3.95;;;6.60;99.90;;;;;;5002625;28;20068;-50
2023/04/04 06:55:01;;;;;;;7.28;3.30;;;6.60;99.90;;;;;;5009433;28;20057;-50
2023/04/04 06:57:27;;;;;;;5.68;3.00;;;7.30;99.90;;;;;;5032855;28;20052;-49
2023/04/04 06:59:53;;;;;;;6.25;3.05;;;7.40;99.90;;;;;;5030938;28;20117;-52
2023/04/04 07:02:18;;;;;;;5.65;2.70;;;7.10;99.90;;;;;;5027663;28;20493;-54
2023/04/04 07:04:44;;;;;;;5.72;3.00;;;7.30;99.90;;;;;;5040613;27;20256;-51
2023/04/04 07:07:10;;;;;;;4.68;2.90;;;7.50;99.90;;;;;;5039259;28;20454;-51
2023/04/04 07:09:36;;;;;;;6.47;2.90;;;7.50;99.90;;;;;;5044022;27;20040;-51
2023/04/04 07:12:02;;;;;;;7.63;3.10;;;7.40;99.90;;;;;;5040386;28;20053;-50
2023/04/04 07:14:28;;;;;;;3.85;2.42;;;7.70;99.90;;;;;;5016140;28;20041;-52
2023/04/04 07:16:54;;;;;;;4.60;2.50;;;7.80;99.90;;;;;;5044585;27;20397;-50
2023/04/04 07:19:22;;;;;;;5.05;2.70;;;7.40;99.90;;;;;;5052678;27;20029;-53
2023/04/04 07:21:48;;;;;;;5.35;2.83;;;6.90;99.90;;;;;;5041638;28;20128;-54
2023/04/04 07:24:14;;;;;;;6.25;2.60;;;6.50;99.90;;;;;;5041863;28;20172;-52
2023/04/04 07:26:40;;;;;;;5.45;2.78;;;6.10;99.90;;;;;;5038127;28;20041;-54
2023/04/04 07:29:05;;;;;;;3.45;2.50;;;5.80;99.90;;;;;;5043418;28;20048;-52
2023/04/04 07:31:31;;;;;;;4.13;2.47;;;5.60;99.90;;;;;;5039497;28;20093;-54
2023/04/04 07:33:57;;;;;;;4.50;2.40;;;5.40;99.90;;;;;;5044380;28;20113;-51
2023/04/04 07:36:22;;;;;;;6.50;2.67;;;5.20;99.90;;;;;;5046557;27;20056;-51
2023/04/04 07:38:50;;;;;;;6.25;2.90;;;5.20;99.90;;;;;;5050180;27;20037;-50
2023/04/04 07:41:15;;;;;;;5.15;3.08;;;5.40;99.90;;;;;;5043896;28;20503;-52
2023/04/04 07:43:41;;;;;;;4.78;2.67;;;5.40;99.90;;;;;;5058565;27;20143;-52
2023/04/04 07:46:06;;;;;;;5.10;2.47;;;5.40;99.90;;;;;;5041305;27;20045;-53
2023/04/04 07:48:32;;;;;;;6.18;2.35;;;5.40;99.90;;;;;;5083292;27;20383;-50
2023/04/04 07:51:00;;;;;;;4.65;2.60;;;5.40;99.90;;;;;;5055850;27;20064;-53
2023/04/04 07:53:26;;;;;;;4.10;2.35;;;5.40;99.90;;;;;;5052669;27;20517;-54
2023/04/04 07:55:51;;;;;;;4.43;2.88;;;5.50;99.90;;;;;;5040537;27;20404;-50
2023/04/04 07:58:17;;;;;;;4.40;2.50;;;5.70;99.90;;;;;;5033853;28;20076;-50
2023/04/04 08:00:43;;;;;;;6.38;2.60;;;5.60;99.90;;;;;;5037934;27;20511;-51
2023/04/04 08:03:08;;;;;;;5.25;2.30;;;5.60;99.90;;;;;;5044309;28;20261;-52
2023/04/04 08:05:34;;;;;;;5.18;2.40;;;5.60;99.90;;;;;;5026969;28;20037;-50
2023/04/04 08:08:00;;;;;;;4.88;1.90;;;5.70;99.90;;;;;;5044566;28;20391;-52
2023/04/04 08:10:26;;;;;;;4.82;2.40;;;5.50;99.90;;;;;;5044895;28;20045;-51
2023/04/04 08:12:52;;;;;;;3.63;1.90;;;5.50;99.90;;;;;;5045912;28;20378;-52
2023/04/04 08:15:17;;;;;;;6.18;2.10;;;5.60;99.90;;;;;;5024812;28;20044;-49
2023/04/04 08:17:43;;;;;;;3.92;2.00;;;5.50;99.90;;;;;;5040127;28;20045;-51
2023/04/04 08:20:10;;;;;;;4.47;1.90;;;5.90;99.90;;;;;;5036925;28;20131;-51
2023/04/04 08:22:35;;;;;;;4.35;2.17;;;6.00;99.90;;;;;;5041601;27;20049;-55
2023/04/04 08:25:02;;;;;;;4.15;2.35;;;6.20;99.90;;;;;;5038962;28;20056;-54
2023/04/04 08:27:27;;;;;;;4.93;2.00;;;6.40;99.90;;;;;;5040408;28;20045;-51
2023/04/04 08:29:53;;;;;;;6.10;1.92;;;6.50;99.90;;;;;;5042671;28;20044;-52
2023/04/04 08:32:19;;;;;;;6.13;2.30;;;6.40;99.90;;;;;;5046393;27;20060;-51
2023/04/04 08:34:44;;;;;;;3.40;1.88;;;6.30;99.90;;;;;;5046222;28;20045;-51
2023/04/04 08:37:10;;;;;;;5.60;1.90;;;6.50;99.90;;;;;;5027711;28;20049;-52
2023/04/04 08:39:35;;;;;;;5.10;2.58;;;6.60;99.90;;;;;;5028482;28;20374;-53
2023/04/04 08:42:06;;;;;;;4.53;2.15;;;6.60;99.90;;;;;;5039932;27;20043;-51
2023/04/04 08:44:36;;;;;;;4.63;2.03;;;6.60;99.90;;;;;;5049618;28;20045;-51
2023/04/04 08:47:07;;;;;;;3.67;1.90;;;6.70;99.90;;;;;;5042614;28;20068;-51
2023/04/04 08:49:37;;;;;;;5.72;1.98;;;7.00;99.90;;;;;;5047914;28;20490;-50
2023/04/04 08:52:05;;;;;;;5.20;2.25;;;7.10;99.90;;;;;;5048830;27;20041;-50
2023/04/04 08:54:33;;;;;;;5.28;2.40;;;7.10;99.90;;;;;;5014309;28;20049;-54
2023/04/04 08:56:58;;;;;;;4.28;1.80;;;7.30;99.90;;;;;;5044163;28;20444;-52
2023/04/04 08:59:24;;;;;;;3.22;1.80;;;7.10;99.90;;;;;;5033532;28;20037;-50
2023/04/04 09:02:03;;;;;;;6.47;2.03;;;7.10;99.90;;;;;;5043605;28;20093;-50
2023/04/04 09:04:29;;;;;;;5.95;2.03;;;7.10;99.90;;;;;;5045768;28;20562;-53
2023/04/04 09:06:56;;;;;;;4.10;1.88;;;7.10;99.90;;;;;;5038438;28;20056;-48
2023/04/04 09:09:23;;;;;;;4.40;2.17;;;7.20;99.90;;;;;;5047149;28;20045;-53
2023/04/04 09:11:50;;;;;;;3.78;1.88;;;7.40;99.90;;;;;;5045194;28;20090;-54
2023/04/04 09:14:17;;;;;;;6.15;2.13;;;7.10;99.90;;;;;;5035205;28;20037;-49
2023/04/04 09:16:43;;;;;;;5.18;2.63;;;7.30;99.90;;;;;;5022960;28;20029;-50
2023/04/04 09:19:08;;;;;;;4.97;2.20;;;7.40;99.90;;;;;;5045833;28;20093;-49
2023/04/04 09:21:34;;;;;;;4.82;2.45;;;7.60;99.90;;;;;;5048289;27;20044;-49
2023/04/04 09:24:01;;;;;;;5.68;2.55;;;7.70;99.90;;;;;;5043787;28;20772;-49
2023/04/04 09:26:26;;;;;;;3.63;2.08;;;7.80;99.90;;;;;;5032676;28;20037;-53
2023/04/04 09:28:52;;;;;;;5.18;2.17;;;7.70;99.90;;;;;;5043684;28;20048;-50
2023/04/04 09:31:18;;;;;;;4.47;2.13;;;7.70;99.90;;;;;;5049324;28;20143;-54
2023/04/04 09:33:47;;;;;;;6.53;2.30;;;7.90;99.90;;;;;;5042691;28;20485;-51
2023/04/04 09:36:14;;;;;;;4.50;1.98;;;8.20;99.90;;;;;;5043448;28;20141;-53
2023/04/04 09:38:44;;;;;;;3.25;2.40;;;8.00;99.90;;;;;;5041233;28;20037;-54
2023/04/04 09:41:13;;;;;;;5.10;2.28;;;8.20;99.90;;;;;;5049941;28;20772;-51
2023/04/04 09:43:39;;;;;;;3.33;2.10;;;8.40;99.90;;;;;;5132363;28;20086;-49
2023/04/04 09:46:06;;;;;;;1.40;1.02;;;8.20;99.90;;;;;;5039686;28;20075;-50
2023/04/04 09:48:34;;;;;;;3.38;1.75;;;8.00;99.90;;;;;;5024415;28;20044;-53
2023/04/04 09:51:03;;;;;;;4.40;1.98;;;8.20;99.90;;;;;;5042752;27;20136;-49
2023/04/04 09:53:28;;;;;;;3.90;2.15;;;8.20;99.10;;;;;;5042479;28;20037;-50
2023/04/04 09:55:56;;;;;;;4.35;2.08;;;8.30;99.90;;;;;;5042407;28;20045;-51
2023/04/04 09:58:28;;;;;;;5.55;2.03;;;8.20;99.90;;;;;;5039752;28;20125;-54
2023/04/04 10:00:56;;;;;;;3.92;1.88;;;8.10;99.90;;;;;;5041399;28;20036;-53
2023/04/04 10:03:23;;;;;;;2.78;1.80;;;8.50;99.90;;;;;;5041240;27;20060;-52
2023/04/04 10:05:55;;;;;;;3.17;1.67;;;8.60;99.90;;;;;;5038049;28;20045;-50
2023/04/04 10:08:21;;;;;;;5.85;2.00;;;8.60;99.40;;;;;;5039728;28;20089;-51
2023/04/04 10:10:55;;;;;;;4.95;1.83;;;8.30;98.20;;;;;;5036389;28;20495;-51
2023/04/04 10:13:29;;;;;;;2.35;1.08;;;8.60;99.60;;;;;;5036057;27;20755;-51
2023/04/04 10:15:56;;;;;;;4.85;1.80;;;8.40;98.90;;;;;;5037126;28;20099;-54
2023/04/04 10:18:29;;;;;;;6.90;2.27;;;8.70;99.10;;;;;;5033981;27;20494;-51
2023/04/04 10:20:57;;;;;;;3.75;2.20;;;8.80;99.10;;;;;;5018910;28;20573;-50
2023/04/04 10:23:26;;;;;;;3.17;1.80;;;8.90;97.70;;;;;;5035134;28;20566;-50
2023/04/04 10:25:56;;;;;;;4.20;1.90;;;8.80;97.40;;;;;;5035692;28;20496;-51
2023/04/04 10:28:23;;;;;;;6.35;1.83;;;8.90;98.10;;;;;;5035302;27;20477;-51
2023/04/04 10:30:54;;;;;;;4.65;1.88;;;8.80;96.90;;;;;;5036535;27;20041;-49
2023/04/04 10:33:38;;;;;;;3.63;2.20;;;9.00;97.00;;;;;;5037598;28;20041;-49
2023/04/04 10:36:07;;;;;;;4.05;1.70;;;8.90;95.90;;;;;;5037008;28;20049;-51
2023/04/04 10:38:47;;;;;;;5.25;1.80;;;8.90;95.80;;;;;;5041516;27;20045;-52
2023/04/04 10:41:13;;;;;;;3.22;1.90;;;9.00;96.10;;;;;;5038017;28;20052;-49
2023/04/04 10:43:46;;;;;;;3.47;1.80;;;8.90;96.50;;;;;;5027827;28;20144;-51
2023/04/04 10:46:16;;;;;;;5.85;1.90;;;8.90;95.50;;;;;;5040825;28;20091;-50
2023/04/04 10:48:43;;;;;;;3.28;2.10;;;9.20;96.50;;;;;;5041202;27;20093;-54
2023/04/04 10:51:10;;;;;;;3.33;1.92;;;9.30;96.40;;;;;;5041584;28;20050;-52
2023/04/04 10:53:38;;;;;;;2.25;1.75;;;9.20;95.40;;;;;;5008160;28;20055;-51
2023/04/04 10:56:05;;;;;;;5.75;2.17;;;8.80;94.00;;;;;;5038677;28;20124;-51
2023/04/04 10:58:30;;;;;;;5.97;2.30;;;9.00;96.20;;;;;;5044616;27;20378;-51
2023/04/04 11:00:58;;;;;;;3.70;2.10;;;9.10;95.40;;;;;;5039217;28;20036;-53
2023/04/04 11:03:24;;;;;;;4.13;2.00;;;9.50;95.40;;;;;;5022954;27;20444;-54
2023/04/04 11:05:54;;;;;;;5.25;2.25;;;9.60;96.30;;;;;;5040686;28;20045;-54
2023/04/04 11:08:25;;;;;;;4.32;2.22;;;9.60;94.50;;;;;;5042564;28;20059;-52
2023/04/04 11:10:52;;;;;;;5.15;2.20;;;9.30;94.30;;;;;;5042965;28;20109;-49
2023/04/04 11:13:23;;;;;;;5.63;2.17;;;9.60;94.90;;;;;;5042945;28;20044;-51
2023/04/04 11:16:15;;;;;;;4.60;2.22;;;9.60;94.40;;;;;;5039498;28;20046;-49
2023/04/04 11:18:40;;;;;;;6.70;2.63;;;9.70;94.70;;;;;;5040643;27;20038;-52
2023/04/04 11:21:22;;;;;;;4.60;2.50;;;9.80;93.70;;;;;;5040633;28;20052;-53
2023/04/04 11:23:48;;;;;;;5.22;2.13;;;9.70;93.50;;;;;;5022916;28;20090;-54
2023/04/04 11:26:32;;;;;;;2.70;1.80;;;10.00;94.10;;;;;;5040762;27;20411;-54
2023/04/04 11:29:02;;;;;;;4.60;2.28;;;9.60;93.50;;;;;;5041116;27;20049;-53
2023/04/04 11:31:46;;;;;;;5.32;2.30;;;9.50;92.20;;;;;;5040832;27;20375;-52
2023/04/04 11:34:15;;;;;;;4.70;2.15;;;9.60;92.30;;;;;;5043805;28;21490;-50
2023/04/04 11:36:41;;;;;;;;;;;9.70;92.70;;;;;;5041282;28;20040;-51
2023/04/04 11:39:29;;;;;;;7.85;2.55;;;9.80;92.40;;;;;;5025169;28;20361;-50
2023/04/04 11:41:58;;;;;;;;;;;9.80;92.00;;;;;;5044576;28;20092;-51
2023/04/04 11:44:28;;;;;;;2.47;1.60;;;9.90;92.60;;;;;;5027748;27;19921;-50
2023/04/04 11:47:03;;;;;;;3.30;2.10;;;9.90;91.70;;;;;;5042400;28;20490;-52
2023/04/04 11:49:30;;;;;;;4.25;1.92;;;9.80;91.30;;;;;;5024536;28;20056;-50
2023/04/04 11:51:56;;;;;;;3.63;2.22;;;9.50;90.20;;;;;;5042798;27;20037;-50
2023/04/04 11:54:22;;;;;;;4.25;2.05;;;9.60;92.40;;;;;;5038779;28;20090;-50
2023/04/04 11:56:48;;;;;;;3.97;2.08;;;9.70;92.10;;;;;;5043305;28;20045;-53
2023/04/04 11:59:21;;;;;;;6.70;2.03;;;9.80;90.70;;;;;;5037399;27;20037;-52
2023/04/04 12:01:48;;;;;;;5.15;1.73;;;10.10;92.30;;;;;;5040879;28;20136;-53
2023/04/04 12:04:18;;;;;;;2.95;2.10;;;10.00;90.20;;;;;;5038700;27;20197;-51
2023/04/04 12:06:50;;;;;;;4.03;1.75;;;9.90;89.20;;;;;;5039077;28;20045;-51
2023/04/04 12:09:17;;;;;;;2.67;1.80;;;10.10;90.50;;;;;;5040923;28;20052;-51
2023/04/04 12:11:43;;;;;;;3.77;2.03;;;9.80;89.90;;;;;;5037358;28;20878;-51
2023/04/04 12:14:20;;;;;;;3.65;2.03;;;10.10;92.00;;;;;;5037379;28;20156;-51
2023/04/04 12:16:51;;;;;;;2.38;1.60;;;10.30;91.70;;;;;;5039767;28;20056;-52
2023/04/04 12:19:17;;;;;;;3.65;1.75;;;10.30;88.00;;;;;;5035899;28;20742;-53
2023/04/04 12:21:46;;;;;;;2.30;2.00;;;10.20;84.60;;;;;;5039922;27;20061;-50
2023/04/04 12:24:14;;;;;;;4.47;1.90;;;10.30;86.20;;;;;;5039250;28;20438;-53
2023/04/04 12:26:41;;;;;;;;;;;10.30;85.90;;;;;;5023250;28;20039;-53
2023/04/04 12:29:08;;;;;;;3.28;1.95;;;10.80;86.50;;;;;;5042561;28;20052;-51
2023/04/04 12:31:37;;;;;;;3.08;1.90;;;10.90;85.30;;;;;;5039855;27;21292;-51
2023/04/04 12:34:03;;;;;;;6.13;2.20;;;10.90;84.50;;;;;;5041998;27;20041;-51
2023/04/04 12:36:30;;;;;;;2.95;1.92;;;10.90;84.40;;;;;;5040678;28;20033;-51
2023/04/04 12:39:06;;;;;;;3.95;2.10;;;10.70;85.10;;;;;;5023306;28;20517;-50
2023/04/04 12:41:33;;;;;;;1.85;1.52;;;10.60;84.60;;;;;;5037906;28;20171;-55
2023/04/04 12:44:01;;;;;;;7.18;2.00;;;10.40;82.30;;;;;;5039391;28;20089;-53
2023/04/04 12:46:27;;;;;;;2.83;2.00;;;10.50;83.80;;;;;;5037869;28;20162;-53
2023/04/04 12:48:53;;;;;;;4.68;2.15;;;10.50;81.80;;;;;;5037752;28;20045;-53
2023/04/04 12:51:19;;;;;;;2.33;1.80;;;10.70;81.70;;;;;;5036749;27;20111;-53
2023/04/04 12:53:52;;;;;;;4.95;1.98;;;10.70;78.90;;;;;;5043775;27;20564;-51
2023/04/04 12:56:18;;;;;;;3.35;1.88;;;10.70;79.70;;;;;;5038138;27;20049;-51
2023/04/04 12:58:48;;;;;;;2.22;1.65;;;10.80;78.90;;;;;;5043031;27;20035;-50
2023/04/04 13:01:16;;;;;;;3.42;1.90;;;10.60;74.30;;;;;;5033422;28;20052;-49